sensor_id;sensor_type;location;lat;lon;timestamp;temperature;humidity
24144;DHT22;12307;50.828;6.080;2023-05-07T00:01:08;21.50;60.30
24144;DHT22;12307;50.828;6.080;2023-05-07T00:03:35;21.60;60.40
24144;DHT22;12307;50.828;6.080;2023-05-07T00:06:02;21.60;60.40
24144;DHT22;12307;50.828;6.080;2023-05-07T00:08:27;21.60;60.40
24144;DHT22;12307;50.828;6.080;2023-05-07T00:10:53;21.50;60.30
24144;DHT22;12307;50.828;6.080;2023-05-07T00:13:19;21.50;60.30
24144;DHT22;12307;50.828;6.080;2023-05-07T00:15:44;21.60;60.40
24144;DHT22;12307;50.828;6.080;2023-05-07T00:18:10;21.50;60.40
24144;DHT22;12307;50.828;6.080;2023-05-07T00:20:37;21.60;60.50
24144;DHT22;12307;50.828;6.080;2023-05-07T00:23:03;21.50;60.40
24144;DHT22;12307;50.828;6.080;2023-05-07T00:25:28;21.60;60.50
24144;DHT22;12307;50.828;6.080;2023-05-07T00:27:54;21.50;60.50
24144;DHT22;12307;50.828;6.080;2023-05-07T00:30:20;21.50;60.50
24144;DHT22;12307;50.828;6.080;2023-05-07T00:32:46;21.50;60.40
24144;DHT22;12307;50.828;6.080;2023-05-07T00:35:11;21.50;60.50
24144;DHT22;12307;50.828;6.080;2023-05-07T00:37:39;21.50;61.30
24144;DHT22;12307;50.828;6.080;2023-05-07T00:40:06;21.50;60.50
24144;DHT22;12307;50.828;6.080;2023-05-07T00:42:33;21.50;60.50
24144;DHT22;12307;50.828;6.080;2023-05-07T00:44:58;21.50;60.50
24144;DHT22;12307;50.828;6.080;2023-05-07T00:47:25;21.50;60.50
24144;DHT22;12307;50.828;6.080;2023-05-07T00:49:51;21.50;60.50
24144;DHT22;12307;50.828;6.080;2023-05-07T00:52:18;21.50;60.50
24144;DHT22;12307;50.828;6.080;2023-05-07T00:54:47;21.50;60.50
24144;DHT22;12307;50.828;6.080;2023-05-07T00:57:12;21.50;60.50
24144;DHT22;12307;50.828;6.080;2023-05-07T00:59:39;21.50;60.50
24144;DHT22;12307;50.828;6.080;2023-05-07T01:02:06;21.50;60.50
24144;DHT22;12307;50.828;6.080;2023-05-07T01:04:32;21.50;60.50
24144;DHT22;12307;50.828;6.080;2023-05-07T01:06:58;21.50;60.50
24144;DHT22;12307;50.828;6.080;2023-05-07T01:09:25;21.50;60.50
24144;DHT22;12307;50.828;6.080;2023-05-07T01:11:53;21.50;60.50
24144;DHT22;12307;50.828;6.080;2023-05-07T01:14:20;21.50;60.50
24144;DHT22;12307;50.828;6.080;2023-05-07T01:16:46;21.50;60.50
24144;DHT22;12307;50.828;6.080;2023-05-07T01:19:12;21.50;60.50
24144;DHT22;12307;50.828;6.080;2023-05-07T01:21:45;21.50;60.50
24144;DHT22;12307;50.828;6.080;2023-05-07T01:24:13;21.50;60.50
24144;DHT22;12307;50.828;6.080;2023-05-07T01:26:39;21.50;60.50
24144;DHT22;12307;50.828;6.080;2023-05-07T01:29:05;21.50;60.50
24144;DHT22;12307;50.828;6.080;2023-05-07T01:31:32;21.50;60.50
24144;DHT22;12307;50.828;6.080;2023-05-07T01:33:59;21.50;60.60
24144;DHT22;12307;50.828;6.080;2023-05-07T01:36:28;21.50;60.50
24144;DHT22;12307;50.828;6.080;2023-05-07T01:38:54;21.50;60.50
24144;DHT22;12307;50.828;6.080;2023-05-07T01:41:25;21.50;60.50
24144;DHT22;12307;50.828;6.080;2023-05-07T01:43:52;21.50;60.60
24144;DHT22;12307;50.828;6.080;2023-05-07T01:46:19;21.50;60.60
24144;DHT22;12307;50.828;6.080;2023-05-07T01:48:46;21.50;60.60
24144;DHT22;12307;50.828;6.080;2023-05-07T01:51:12;21.50;60.60
24144;DHT22;12307;50.828;6.080;2023-05-07T01:53:38;21.50;60.60
24144;DHT22;12307;50.828;6.080;2023-05-07T01:56:04;21.50;60.60
24144;DHT22;12307;50.828;6.080;2023-05-07T01:58:33;21.50;60.60
24144;DHT22;12307;50.828;6.080;2023-05-07T02:00:59;21.50;60.60
24144;DHT22;12307;50.828;6.080;2023-05-07T02:03:24;21.50;60.60
24144;DHT22;12307;50.828;6.080;2023-05-07T02:05:51;21.50;60.60
24144;DHT22;12307;50.828;6.080;2023-05-07T02:08:17;21.50;60.60
24144;DHT22;12307;50.828;6.080;2023-05-07T02:10:42;21.50;60.60
24144;DHT22;12307;50.828;6.080;2023-05-07T02:13:08;21.50;60.60
24144;DHT22;12307;50.828;6.080;2023-05-07T02:15:35;21.40;60.60
24144;DHT22;12307;50.828;6.080;2023-05-07T02:18:02;21.50;60.60
24144;DHT22;12307;50.828;6.080;2023-05-07T02:20:29;21.50;60.70
24144;DHT22;12307;50.828;6.080;2023-05-07T02:22:54;21.50;60.70
24144;DHT22;12307;50.828;6.080;2023-05-07T02:25:20;21.50;60.70
24144;DHT22;12307;50.828;6.080;2023-05-07T02:27:46;21.50;60.70
24144;DHT22;12307;50.828;6.080;2023-05-07T02:30:12;21.40;60.60
24144;DHT22;12307;50.828;6.080;2023-05-07T02:32:39;21.40;60.70
24144;DHT22;12307;50.828;6.080;2023-05-07T02:35:05;21.50;60.70
24144;DHT22;12307;50.828;6.080;2023-05-07T02:37:31;21.40;60.70
24144;DHT22;12307;50.828;6.080;2023-05-07T02:39:57;21.40;60.70
24144;DHT22;12307;50.828;6.080;2023-05-07T02:42:22;21.40;60.70
24144;DHT22;12307;50.828;6.080;2023-05-07T02:44:48;21.40;60.70
24144;DHT22;12307;50.828;6.080;2023-05-07T02:47:15;21.40;60.70
24144;DHT22;12307;50.828;6.080;2023-05-07T02:49:42;21.40;60.70
24144;DHT22;12307;50.828;6.080;2023-05-07T02:52:08;21.40;60.70
24144;DHT22;12307;50.828;6.080;2023-05-07T02:54:33;21.40;60.80
24144;DHT22;12307;50.828;6.080;2023-05-07T02:56:59;21.40;60.80
24144;DHT22;12307;50.828;6.080;2023-05-07T02:59:26;21.40;60.80
24144;DHT22;12307;50.828;6.080;2023-05-07T03:01:52;21.40;60.90
24144;DHT22;12307;50.828;6.080;2023-05-07T03:04:17;21.40;60.90
24144;DHT22;12307;50.828;6.080;2023-05-07T03:06:44;21.40;60.90
24144;DHT22;12307;50.828;6.080;2023-05-07T03:09:10;21.40;60.90
24144;DHT22;12307;50.828;6.080;2023-05-07T03:11:36;21.40;60.90
24144;DHT22;12307;50.828;6.080;2023-05-07T03:14:02;21.40;60.90
24144;DHT22;12307;50.828;6.080;2023-05-07T03:16:28;21.40;60.90
24144;DHT22;12307;50.828;6.080;2023-05-07T03:18:53;21.40;60.90
24144;DHT22;12307;50.828;6.080;2023-05-07T03:21:19;21.40;60.90
24144;DHT22;12307;50.828;6.080;2023-05-07T03:23:46;21.40;60.90
24144;DHT22;12307;50.828;6.080;2023-05-07T03:26:12;21.40;60.90
24144;DHT22;12307;50.828;6.080;2023-05-07T03:28:37;21.40;60.90
24144;DHT22;12307;50.828;6.080;2023-05-07T03:31:03;21.40;60.90
24144;DHT22;12307;50.828;6.080;2023-05-07T03:33:29;21.40;60.90
24144;DHT22;12307;50.828;6.080;2023-05-07T03:35:54;21.30;60.90
24144;DHT22;12307;50.828;6.080;2023-05-07T03:38:20;21.40;60.90
24144;DHT22;12307;50.828;6.080;2023-05-07T03:40:47;21.40;60.90
24144;DHT22;12307;50.828;6.080;2023-05-07T03:43:13;21.40;60.90
24144;DHT22;12307;50.828;6.080;2023-05-07T03:45:38;21.40;60.90
24144;DHT22;12307;50.828;6.080;2023-05-07T03:48:04;21.40;61.00
24144;DHT22;12307;50.828;6.080;2023-05-07T03:50:30;21.40;61.00
24144;DHT22;12307;50.828;6.080;2023-05-07T03:52:56;21.30;60.90
24144;DHT22;12307;50.828;6.080;2023-05-07T03:55:21;21.30;60.90
24144;DHT22;12307;50.828;6.080;2023-05-07T03:57:48;21.30;60.90
24144;DHT22;12307;50.828;6.080;2023-05-07T04:00:14;21.30;61.00
24144;DHT22;12307;50.828;6.080;2023-05-07T04:02:40;21.30;61.00
24144;DHT22;12307;50.828;6.080;2023-05-07T04:05:06;21.30;61.00
24144;DHT22;12307;50.828;6.080;2023-05-07T04:07:32;21.30;61.00
24144;DHT22;12307;50.828;6.080;2023-05-07T04:09:58;21.30;61.00
24144;DHT22;12307;50.828;6.080;2023-05-07T04:12:23;21.30;61.00
24144;DHT22;12307;50.828;6.080;2023-05-07T04:14:50;21.30;61.00
24144;DHT22;12307;50.828;6.080;2023-05-07T04:17:16;21.30;61.00
24144;DHT22;12307;50.828;6.080;2023-05-07T04:19:42;21.30;61.00
24144;DHT22;12307;50.828;6.080;2023-05-07T04:22:10;21.30;61.00
24144;DHT22;12307;50.828;6.080;2023-05-07T04:24:36;21.30;61.00
24144;DHT22;12307;50.828;6.080;2023-05-07T04:27:02;21.30;61.00
24144;DHT22;12307;50.828;6.080;2023-05-07T04:29:27;21.30;61.00
24144;DHT22;12307;50.828;6.080;2023-05-07T04:31:55;21.30;61.80
24144;DHT22;12307;50.828;6.080;2023-05-07T04:34:21;21.30;61.00
24144;DHT22;12307;50.828;6.080;2023-05-07T04:36:47;21.30;61.00
24144;DHT22;12307;50.828;6.080;2023-05-07T04:39:13;21.30;61.00
24144;DHT22;12307;50.828;6.080;2023-05-07T04:41:39;21.30;61.00
24144;DHT22;12307;50.828;6.080;2023-05-07T04:44:04;21.30;61.00
24144;DHT22;12307;50.828;6.080;2023-05-07T04:46:31;21.30;61.00
24144;DHT22;12307;50.828;6.080;2023-05-07T04:48:58;21.30;60.90
24144;DHT22;12307;50.828;6.080;2023-05-07T04:51:24;21.40;61.00
24144;DHT22;12307;50.828;6.080;2023-05-07T04:53:50;21.30;61.00
24144;DHT22;12307;50.828;6.080;2023-05-07T04:56:16;21.40;61.00
24144;DHT22;12307;50.828;6.080;2023-05-07T04:58:42;21.30;60.90
24144;DHT22;12307;50.828;6.080;2023-05-07T05:01:07;21.40;61.00
24144;DHT22;12307;50.828;6.080;2023-05-07T05:03:33;21.40;61.00
24144;DHT22;12307;50.828;6.080;2023-05-07T05:06:00;21.40;61.00
24144;DHT22;12307;50.828;6.080;2023-05-07T05:08:26;21.40;60.90
24144;DHT22;12307;50.828;6.080;2023-05-07T05:10:51;21.40;60.90
24144;DHT22;12307;50.828;6.080;2023-05-07T05:13:17;21.40;60.90
24144;DHT22;12307;50.828;6.080;2023-05-07T05:15:43;21.40;60.90
24144;DHT22;12307;50.828;6.080;2023-05-07T05:18:09;21.40;61.70
24144;DHT22;12307;50.828;6.080;2023-05-07T05:20:34;21.40;60.90
24144;DHT22;12307;50.828;6.080;2023-05-07T05:23:01;21.40;60.90
24144;DHT22;12307;50.828;6.080;2023-05-07T05:25:27;21.40;60.80
24144;DHT22;12307;50.828;6.080;2023-05-07T05:27:53;21.50;60.90
24144;DHT22;12307;50.828;6.080;2023-05-07T05:30:20;21.40;60.80
24144;DHT22;12307;50.828;6.080;2023-05-07T05:32:45;21.50;60.90
24144;DHT22;12307;50.828;6.080;2023-05-07T05:35:11;21.50;60.80
24144;DHT22;12307;50.828;6.080;2023-05-07T05:37:37;21.50;60.70
24144;DHT22;12307;50.828;6.080;2023-05-07T05:40:05;21.50;60.70
24144;DHT22;12307;50.828;6.080;2023-05-07T05:42:31;21.50;60.70
24144;DHT22;12307;50.828;6.080;2023-05-07T05:44:56;21.50;60.70
24144;DHT22;12307;50.828;6.080;2023-05-07T05:47:22;21.50;61.50
24144;DHT22;12307;50.828;6.080;2023-05-07T05:49:48;21.50;60.70
24144;DHT22;12307;50.828;6.080;2023-05-07T05:52:14;21.50;60.70
24144;DHT22;12307;50.828;6.080;2023-05-07T05:54:40;21.50;60.60
24144;DHT22;12307;50.828;6.080;2023-05-07T05:57:07;21.50;60.60
24144;DHT22;12307;50.828;6.080;2023-05-07T05:59:32;21.60;60.60
24144;DHT22;12307;50.828;6.080;2023-05-07T06:01:58;21.60;60.60
24144;DHT22;12307;50.828;6.080;2023-05-07T06:04:24;21.60;60.60
24144;DHT22;12307;50.828;6.080;2023-05-07T06:06:49;21.60;60.60
24144;DHT22;12307;50.828;6.080;2023-05-07T06:09:15;21.60;60.50
24144;DHT22;12307;50.828;6.080;2023-05-07T06:11:41;21.60;60.50
24144;DHT22;12307;50.828;6.080;2023-05-07T06:14:08;21.60;60.50
24144;DHT22;12307;50.828;6.080;2023-05-07T06:16:33;21.70;60.50
24144;DHT22;12307;50.828;6.080;2023-05-07T06:18:59;21.70;60.50
24144;DHT22;12307;50.828;6.080;2023-05-07T06:21:25;21.70;60.40
24144;DHT22;12307;50.828;6.080;2023-05-07T06:23:50;21.70;60.30
24144;DHT22;12307;50.828;6.080;2023-05-07T06:26:17;21.70;60.30
24144;DHT22;12307;50.828;6.080;2023-05-07T06:28:43;21.70;60.30
24144;DHT22;12307;50.828;6.080;2023-05-07T06:31:14;21.80;60.30
24144;DHT22;12307;50.828;6.080;2023-05-07T06:33:40;21.80;60.30
24144;DHT22;12307;50.828;6.080;2023-05-07T06:36:06;21.80;60.20
24144;DHT22;12307;50.828;6.080;2023-05-07T06:38:32;21.80;60.20
24144;DHT22;12307;50.828;6.080;2023-05-07T06:40:58;21.80;60.20
24144;DHT22;12307;50.828;6.080;2023-05-07T06:43:23;21.80;60.20
24144;DHT22;12307;50.828;6.080;2023-05-07T06:45:49;21.80;60.10
24144;DHT22;12307;50.828;6.080;2023-05-07T06:48:16;21.90;60.20
24144;DHT22;12307;50.828;6.080;2023-05-07T06:50:42;21.90;60.10
24144;DHT22;12307;50.828;6.080;2023-05-07T06:53:07;21.90;60.10
24144;DHT22;12307;50.828;6.080;2023-05-07T06:55:33;21.90;60.00
24144;DHT22;12307;50.828;6.080;2023-05-07T06:57:59;21.90;60.00
24144;DHT22;12307;50.828;6.080;2023-05-07T07:00:26;22.00;60.00
24144;DHT22;12307;50.828;6.080;2023-05-07T07:02:52;22.00;60.00
24144;DHT22;12307;50.828;6.080;2023-05-07T07:05:20;22.00;60.00
24144;DHT22;12307;50.828;6.080;2023-05-07T07:07:46;22.00;60.00
24144;DHT22;12307;50.828;6.080;2023-05-07T07:10:18;22.00;60.00
24144;DHT22;12307;50.828;6.080;2023-05-07T07:12:43;22.10;60.10
24144;DHT22;12307;50.828;6.080;2023-05-07T07:15:10;22.10;60.10
24144;DHT22;12307;50.828;6.080;2023-05-07T07:17:35;22.10;60.10
24144;DHT22;12307;50.828;6.080;2023-05-07T07:20:01;22.10;60.10
24144;DHT22;12307;50.828;6.080;2023-05-07T07:22:29;22.20;60.10
24144;DHT22;12307;50.828;6.080;2023-05-07T07:24:55;22.20;60.00
24144;DHT22;12307;50.828;6.080;2023-05-07T07:27:20;22.20;60.00
24144;DHT22;12307;50.828;6.080;2023-05-07T07:29:46;22.20;60.00
24144;DHT22;12307;50.828;6.080;2023-05-07T07:32:12;22.30;60.00
24144;DHT22;12307;50.828;6.080;2023-05-07T07:34:37;22.30;59.90
24144;DHT22;12307;50.828;6.080;2023-05-07T07:37:03;22.20;59.90
24144;DHT22;12307;50.828;6.080;2023-05-07T07:39:33;22.30;59.90
24144;DHT22;12307;50.828;6.080;2023-05-07T07:41:59;22.30;59.90
24144;DHT22;12307;50.828;6.080;2023-05-07T07:44:25;22.40;59.90
24144;DHT22;12307;50.828;6.080;2023-05-07T07:46:50;22.30;59.80
24144;DHT22;12307;50.828;6.080;2023-05-07T07:49:17;22.40;59.80
24144;DHT22;12307;50.828;6.080;2023-05-07T07:51:42;22.40;59.70
24144;DHT22;12307;50.828;6.080;2023-05-07T07:54:08;22.50;59.80
24144;DHT22;12307;50.828;6.080;2023-05-07T07:56:35;22.50;59.70
24144;DHT22;12307;50.828;6.080;2023-05-07T07:59:01;22.60;59.70
24144;DHT22;12307;50.828;6.080;2023-05-07T08:01:29;22.60;59.70
24144;DHT22;12307;50.828;6.080;2023-05-07T08:03:55;22.60;59.60
24144;DHT22;12307;50.828;6.080;2023-05-07T08:06:21;22.70;59.60
24144;DHT22;12307;50.828;6.080;2023-05-07T08:08:46;22.70;59.50
24144;DHT22;12307;50.828;6.080;2023-05-07T08:11:12;22.70;59.40
24144;DHT22;12307;50.828;6.080;2023-05-07T08:13:39;22.70;59.40
24144;DHT22;12307;50.828;6.080;2023-05-07T08:16:05;22.80;59.40
24144;DHT22;12307;50.828;6.080;2023-05-07T08:18:31;22.80;59.30
24144;DHT22;12307;50.828;6.080;2023-05-07T08:20:56;22.80;59.30
24144;DHT22;12307;50.828;6.080;2023-05-07T08:23:22;22.90;59.20
24144;DHT22;12307;50.828;6.080;2023-05-07T08:25:48;22.90;59.10
24144;DHT22;12307;50.828;6.080;2023-05-07T08:28:14;23.00;59.10
24144;DHT22;12307;50.828;6.080;2023-05-07T08:30:41;23.00;59.00
24144;DHT22;12307;50.828;6.080;2023-05-07T08:33:08;23.10;58.80
24144;DHT22;12307;50.828;6.080;2023-05-07T08:35:34;23.20;58.60
24144;DHT22;12307;50.828;6.080;2023-05-07T08:38:00;23.40;58.50
24144;DHT22;12307;50.828;6.080;2023-05-07T08:40:26;23.50;58.10
24144;DHT22;12307;50.828;6.080;2023-05-07T08:42:52;23.70;57.80
24144;DHT22;12307;50.828;6.080;2023-05-07T08:45:19;24.00;57.60
24144;DHT22;12307;50.828;6.080;2023-05-07T08:47:50;24.10;57.20
24144;DHT22;12307;50.828;6.080;2023-05-07T08:50:17;24.30;57.00
24144;DHT22;12307;50.828;6.080;2023-05-07T08:52:43;24.40;56.80
24144;DHT22;12307;50.828;6.080;2023-05-07T08:55:09;24.50;56.50
24144;DHT22;12307;50.828;6.080;2023-05-07T08:57:35;24.70;56.20
24144;DHT22;12307;50.828;6.080;2023-05-07T09:00:01;24.90;56.10
24144;DHT22;12307;50.828;6.080;2023-05-07T09:02:27;24.90;55.80
24144;DHT22;12307;50.828;6.080;2023-05-07T09:04:54;25.00;55.70
24144;DHT22;12307;50.828;6.080;2023-05-07T09:07:20;25.10;55.60
24144;DHT22;12307;50.828;6.080;2023-05-07T09:09:46;25.20;55.50
24144;DHT22;12307;50.828;6.080;2023-05-07T09:12:12;25.40;55.30
24144;DHT22;12307;50.828;6.080;2023-05-07T09:14:38;25.50;55.10
24144;DHT22;12307;50.828;6.080;2023-05-07T09:17:04;25.80;54.90
24144;DHT22;12307;50.828;6.080;2023-05-07T09:19:30;26.10;54.60
24144;DHT22;12307;50.828;6.080;2023-05-07T09:22:01;26.30;54.20
24144;DHT22;12307;50.828;6.080;2023-05-07T09:24:27;26.50;54.00
24144;DHT22;12307;50.828;6.080;2023-05-07T09:26:54;26.80;53.80
24144;DHT22;12307;50.828;6.080;2023-05-07T09:29:20;27.10;53.40
24144;DHT22;12307;50.828;6.080;2023-05-07T09:31:46;27.50;53.10
24144;DHT22;12307;50.828;6.080;2023-05-07T09:34:12;27.80;52.70
24144;DHT22;12307;50.828;6.080;2023-05-07T09:36:38;28.20;52.30
24144;DHT22;12307;50.828;6.080;2023-05-07T09:39:05;28.50;51.90
24144;DHT22;12307;50.828;6.080;2023-05-07T09:41:31;28.80;51.50
24144;DHT22;12307;50.828;6.080;2023-05-07T09:43:58;29.00;51.10
24144;DHT22;12307;50.828;6.080;2023-05-07T09:46:27;29.20;50.90
24144;DHT22;12307;50.828;6.080;2023-05-07T09:48:57;29.20;50.50
24144;DHT22;12307;50.828;6.080;2023-05-07T09:51:25;29.30;50.20
24144;DHT22;12307;50.828;6.080;2023-05-07T09:53:53;29.20;50.10
24144;DHT22;12307;50.828;6.080;2023-05-07T09:56:21;29.10;50.00
24144;DHT22;12307;50.828;6.080;2023-05-07T09:58:47;28.90;49.90
24144;DHT22;12307;50.828;6.080;2023-05-07T10:01:13;28.80;50.00
24144;DHT22;12307;50.828;6.080;2023-05-07T10:03:40;28.50;49.90
24144;DHT22;12307;50.828;6.080;2023-05-07T10:06:09;28.30;50.20
24144;DHT22;12307;50.828;6.080;2023-05-07T10:08:36;28.00;50.50
24144;DHT22;12307;50.828;6.080;2023-05-07T10:11:03;27.80;50.70
24144;DHT22;12307;50.828;6.080;2023-05-07T10:13:31;27.50;50.70
24144;DHT22;12307;50.828;6.080;2023-05-07T10:15:57;27.30;51.00
24144;DHT22;12307;50.828;6.080;2023-05-07T10:18:23;27.10;51.10
24144;DHT22;12307;50.828;6.080;2023-05-07T10:20:57;26.90;51.50
24144;DHT22;12307;50.828;6.080;2023-05-07T10:23:27;26.60;51.60
24144;DHT22;12307;50.828;6.080;2023-05-07T10:25:54;26.40;52.00
24144;DHT22;12307;50.828;6.080;2023-05-07T10:28:21;26.10;52.40
24144;DHT22;12307;50.828;6.080;2023-05-07T10:30:58;25.90;52.50
24144;DHT22;12307;50.828;6.080;2023-05-07T10:33:29;25.70;52.50
24144;DHT22;12307;50.828;6.080;2023-05-07T10:35:57;25.60;52.80
24144;DHT22;12307;50.828;6.080;2023-05-07T10:38:24;25.50;53.00
24144;DHT22;12307;50.828;6.080;2023-05-07T10:40:50;25.40;53.10
24144;DHT22;12307;50.828;6.080;2023-05-07T10:43:16;25.30;53.30
24144;DHT22;12307;50.828;6.080;2023-05-07T10:45:42;25.10;53.40
24144;DHT22;12307;50.828;6.080;2023-05-07T10:48:11;25.00;53.60
24144;DHT22;12307;50.828;6.080;2023-05-07T10:50:38;24.90;53.80
24144;DHT22;12307;50.828;6.080;2023-05-07T10:53:23;24.80;53.90
24144;DHT22;12307;50.828;6.080;2023-05-07T10:58:34;24.70;54.20
24144;DHT22;12307;50.828;6.080;2023-05-07T11:01:02;24.60;54.30
24144;DHT22;12307;50.828;6.080;2023-05-07T11:03:29;24.50;54.40
24144;DHT22;12307;50.828;6.080;2023-05-07T11:06:09;24.50;54.60
24144;DHT22;12307;50.828;6.080;2023-05-07T11:09:00;24.40;54.60
24144;DHT22;12307;50.828;6.080;2023-05-07T11:11:44;24.30;54.60
24144;DHT22;12307;50.828;6.080;2023-05-07T11:14:10;24.30;54.80
24144;DHT22;12307;50.828;6.080;2023-05-07T11:16:36;24.30;54.90
24144;DHT22;12307;50.828;6.080;2023-05-07T11:19:04;24.20;54.90
24144;DHT22;12307;50.828;6.080;2023-05-07T11:21:34;24.10;55.00
24144;DHT22;12307;50.828;6.080;2023-05-07T11:24:01;24.10;55.10
24144;DHT22;12307;50.828;6.080;2023-05-07T11:26:28;24.10;55.20
24144;DHT22;12307;50.828;6.080;2023-05-07T11:28:55;24.00;55.20
24144;DHT22;12307;50.828;6.080;2023-05-07T11:31:23;24.00;55.30
24144;DHT22;12307;50.828;6.080;2023-05-07T11:33:49;24.00;55.40
24144;DHT22;12307;50.828;6.080;2023-05-07T11:36:16;24.00;55.50
24144;DHT22;12307;50.828;6.080;2023-05-07T11:38:43;23.90;55.50
24144;DHT22;12307;50.828;6.080;2023-05-07T11:41:09;23.90;56.10
24144;DHT22;12307;50.828;6.080;2023-05-07T11:43:34;23.90;55.50
24144;DHT22;12307;50.828;6.080;2023-05-07T11:46:08;23.90;55.60
24144;DHT22;12307;50.828;6.080;2023-05-07T11:48:34;23.80;55.60
24144;DHT22;12307;50.828;6.080;2023-05-07T11:51:02;23.80;55.70
24144;DHT22;12307;50.828;6.080;2023-05-07T11:53:36;23.80;55.80
24144;DHT22;12307;50.828;6.080;2023-05-07T11:56:06;23.70;55.70
24144;DHT22;12307;50.828;6.080;2023-05-07T11:58:32;23.70;55.80
24144;DHT22;12307;50.828;6.080;2023-05-07T12:00:58;23.70;55.90
24144;DHT22;12307;50.828;6.080;2023-05-07T12:03:23;23.60;55.90
24144;DHT22;12307;50.828;6.080;2023-05-07T12:05:49;23.60;56.00
24144;DHT22;12307;50.828;6.080;2023-05-07T12:08:15;23.60;56.00
24144;DHT22;12307;50.828;6.080;2023-05-07T12:10:48;23.60;56.10
24144;DHT22;12307;50.828;6.080;2023-05-07T12:13:14;23.60;56.10
24144;DHT22;12307;50.828;6.080;2023-05-07T12:15:40;23.50;56.10
24144;DHT22;12307;50.828;6.080;2023-05-07T12:18:06;23.50;56.20
24144;DHT22;12307;50.828;6.080;2023-05-07T12:20:33;23.50;56.30
24144;DHT22;12307;50.828;6.080;2023-05-07T12:22:59;23.40;56.30
24144;DHT22;12307;50.828;6.080;2023-05-07T12:25:26;23.40;56.40
24144;DHT22;12307;50.828;6.080;2023-05-07T12:27:53;23.40;56.40
24144;DHT22;12307;50.828;6.080;2023-05-07T12:30:19;23.40;56.50
24144;DHT22;12307;50.828;6.080;2023-05-07T12:32:45;23.30;56.50
24144;DHT22;12307;50.828;6.080;2023-05-07T12:35:10;23.40;56.50
24144;DHT22;12307;50.828;6.080;2023-05-07T12:37:36;23.40;56.60
24144;DHT22;12307;50.828;6.080;2023-05-07T12:40:06;23.40;56.60
24144;DHT22;12307;50.828;6.080;2023-05-07T12:42:33;23.40;56.60
24144;DHT22;12307;50.828;6.080;2023-05-07T12:45:00;23.30;56.60
24144;DHT22;12307;50.828;6.080;2023-05-07T12:47:27;23.30;56.60
24144;DHT22;12307;50.828;6.080;2023-05-07T12:49:54;23.40;56.60
24144;DHT22;12307;50.828;6.080;2023-05-07T12:52:20;23.40;56.60
24144;DHT22;12307;50.828;6.080;2023-05-07T12:54:46;23.40;56.60
24144;DHT22;12307;50.828;6.080;2023-05-07T12:57:13;23.40;56.50
24144;DHT22;12307;50.828;6.080;2023-05-07T12:59:39;23.50;56.60
24144;DHT22;12307;50.828;6.080;2023-05-07T13:02:07;23.50;56.50
24144;DHT22;12307;50.828;6.080;2023-05-07T13:04:33;23.50;56.50
24144;DHT22;12307;50.828;6.080;2023-05-07T13:06:59;23.60;56.50
24144;DHT22;12307;50.828;6.080;2023-05-07T13:09:25;23.60;56.50
24144;DHT22;12307;50.828;6.080;2023-05-07T13:11:51;23.60;56.40
24144;DHT22;12307;50.828;6.080;2023-05-07T13:14:17;23.60;56.40
24144;DHT22;12307;50.828;6.080;2023-05-07T13:16:43;23.60;56.40
24144;DHT22;12307;50.828;6.080;2023-05-07T13:19:10;23.60;56.40
24144;DHT22;12307;50.828;6.080;2023-05-07T13:21:36;23.70;56.40
24144;DHT22;12307;50.828;6.080;2023-05-07T13:24:02;23.70;56.40
24144;DHT22;12307;50.828;6.080;2023-05-07T13:26:29;23.70;56.40
24144;DHT22;12307;50.828;6.080;2023-05-07T13:28:55;23.70;56.40
24144;DHT22;12307;50.828;6.080;2023-05-07T13:31:21;23.70;56.40
24144;DHT22;12307;50.828;6.080;2023-05-07T13:33:47;23.70;56.50
24144;DHT22;12307;50.828;6.080;2023-05-07T13:36:14;23.70;56.50
24144;DHT22;12307;50.828;6.080;2023-05-07T13:38:40;23.70;56.50
24144;DHT22;12307;50.828;6.080;2023-05-07T13:41:06;23.70;56.50
24144;DHT22;12307;50.828;6.080;2023-05-07T13:43:31;23.70;56.50
24144;DHT22;12307;50.828;6.080;2023-05-07T13:45:58;23.70;56.50
24144;DHT22;12307;50.828;6.080;2023-05-07T13:48:24;23.70;56.50
24144;DHT22;12307;50.828;6.080;2023-05-07T13:50:50;23.70;56.50
24144;DHT22;12307;50.828;6.080;2023-05-07T13:53:17;23.60;56.50
24144;DHT22;12307;50.828;6.080;2023-05-07T13:55:44;23.60;56.50
24144;DHT22;12307;50.828;6.080;2023-05-07T13:58:10;23.60;56.50
24144;DHT22;12307;50.828;6.080;2023-05-07T14:00:35;23.60;56.50
24144;DHT22;12307;50.828;6.080;2023-05-07T14:03:01;23.60;56.50
24144;DHT22;12307;50.828;6.080;2023-05-07T14:05:27;23.60;56.50
24144;DHT22;12307;50.828;6.080;2023-05-07T14:07:55;23.60;56.50
24144;DHT22;12307;50.828;6.080;2023-05-07T14:10:23;23.60;56.60
24144;DHT22;12307;50.828;6.080;2023-05-07T14:12:49;23.60;56.60
24144;DHT22;12307;50.828;6.080;2023-05-07T14:15:15;23.60;56.60
24144;DHT22;12307;50.828;6.080;2023-05-07T14:17:41;23.60;56.60
24144;DHT22;12307;50.828;6.080;2023-05-07T14:20:08;23.60;56.60
24144;DHT22;12307;50.828;6.080;2023-05-07T14:22:34;23.60;56.70
24144;DHT22;12307;50.828;6.080;2023-05-07T14:25:00;23.60;56.70
24144;DHT22;12307;50.828;6.080;2023-05-07T14:27:27;23.50;56.70
24144;DHT22;12307;50.828;6.080;2023-05-07T14:29:52;23.50;56.70
24144;DHT22;12307;50.828;6.080;2023-05-07T14:32:18;23.50;56.70
24144;DHT22;12307;50.828;6.080;2023-05-07T14:34:44;23.50;56.70
24144;DHT22;12307;50.828;6.080;2023-05-07T14:37:10;23.50;56.70
24144;DHT22;12307;50.828;6.080;2023-05-07T14:39:35;23.50;56.80
24144;DHT22;12307;50.828;6.080;2023-05-07T14:42:01;23.50;56.80
24144;DHT22;12307;50.828;6.080;2023-05-07T14:44:28;23.50;56.80
24144;DHT22;12307;50.828;6.080;2023-05-07T14:46:54;23.50;56.80
24144;DHT22;12307;50.828;6.080;2023-05-07T14:49:20;23.50;56.80
24144;DHT22;12307;50.828;6.080;2023-05-07T14:51:46;23.50;56.80
24144;DHT22;12307;50.828;6.080;2023-05-07T14:54:12;23.50;56.80
24144;DHT22;12307;50.828;6.080;2023-05-07T14:56:38;23.50;56.80
24144;DHT22;12307;50.828;6.080;2023-05-07T14:59:05;23.50;56.90
24144;DHT22;12307;50.828;6.080;2023-05-07T15:01:32;23.50;56.90
24144;DHT22;12307;50.828;6.080;2023-05-07T15:03:57;23.50;56.90
24144;DHT22;12307;50.828;6.080;2023-05-07T15:06:23;23.50;56.90
24144;DHT22;12307;50.828;6.080;2023-05-07T15:08:49;23.50;56.90
24144;DHT22;12307;50.828;6.080;2023-05-07T15:11:15;23.50;56.90
24144;DHT22;12307;50.828;6.080;2023-05-07T15:13:42;23.50;57.00
24144;DHT22;12307;50.828;6.080;2023-05-07T15:16:07;23.40;57.00
24144;DHT22;12307;50.828;6.080;2023-05-07T15:18:34;23.40;57.00
24144;DHT22;12307;50.828;6.080;2023-05-07T15:21:00;23.40;57.00
24144;DHT22;12307;50.828;6.080;2023-05-07T15:23:26;23.40;57.00
24144;DHT22;12307;50.828;6.080;2023-05-07T15:25:52;23.40;57.00
24144;DHT22;12307;50.828;6.080;2023-05-07T15:28:18;23.40;57.10